createdAt,value
2018-11-06T09:13:30.802Z,100
2018-11-06T09:14:02.883Z,105
2018-11-06T09:14:34.916Z,105
2018-11-06T09:15:06.984Z,105
2018-11-06T09:15:39.025Z,105
2018-11-06T09:16:11.116Z,105
2018-11-06T09:16:43.764Z,105
2018-11-06T09:17:15.854Z,110
2018-11-06T09:17:47.917Z,110
2018-11-06T09:18:19.970Z,110
2018-11-06T09:18:52.055Z,110
2018-11-06T09:19:24.145Z,110
2018-11-06T09:19:56.196Z,110
2018-11-06T09:20:28.316Z,110
2018-11-06T09:21:00.399Z,110
2018-11-06T09:21:32.492Z,105
2018-11-06T09:22:04.573Z,110
2018-11-06T09:22:36.616Z,110
2018-11-06T09:23:08.667Z,110
2018-11-06T09:23:40.767Z,110
2018-11-06T09:24:12.839Z,110
2018-11-06T09:24:44.943Z,110
2018-11-06T09:25:17.019Z,110
2018-11-06T09:25:49.113Z,105
2018-11-06T09:26:21.135Z,105
2018-11-06T09:26:53.192Z,110
2018-11-06T09:27:25.290Z,110
2018-11-06T09:27:57.369Z,110
2018-11-06T09:28:29.462Z,105
2018-11-06T09:29:01.528Z,110
2018-11-06T09:29:33.622Z,110
2018-11-06T09:30:05.714Z,110
2018-11-06T09:30:37.780Z,115
2018-11-06T09:31:10.076Z,115
2018-11-06T09:31:42.113Z,120
2018-11-06T09:32:14.181Z,120
2018-11-06T09:32:46.245Z,120
2018-11-06T09:33:18.272Z,120
2018-11-06T09:33:50.351Z,120
2018-11-06T09:34:22.460Z,125
2018-11-06T09:34:54.504Z,125
2018-11-06T09:35:26.558Z,125
2018-11-06T09:35:58.639Z,120
2018-11-06T09:36:30.720Z,120
2018-11-06T09:37:02.802Z,120
2018-11-06T09:37:34.841Z,125
2018-11-06T09:38:06.905Z,130
2018-11-06T09:38:38.986Z,130
2018-11-06T09:39:11.099Z,125
2018-11-06T09:39:43.150Z,130
2018-11-06T09:40:15.209Z,130
2018-11-06T09:40:47.283Z,135
2018-11-06T09:41:19.520Z,130
2018-11-06T09:41:51.526Z,125
2018-11-06T09:42:23.784Z,130
2018-11-06T09:42:55.840Z,130
2018-11-06T09:43:27.890Z,130
2018-11-06T09:43:59.931Z,130
2018-11-06T09:45:04.400Z,135
2018-11-06T09:45:36.778Z,130
2018-11-06T09:46:08.881Z,120
2018-11-06T09:46:40.960Z,125
2018-11-06T09:47:13.004Z,130
2018-11-06T09:47:45.105Z,125
2018-11-06T09:48:17.166Z,125
2018-11-06T09:48:49.340Z,120
2018-11-06T09:49:21.284Z,110
2018-11-06T09:49:53.719Z,115
2018-11-06T09:50:25.780Z,120
2018-11-06T09:50:57.899Z,120
2018-11-06T09:51:29.970Z,120
2018-11-06T09:52:02.210Z,120
2018-11-06T09:52:34.196Z,115
2018-11-06T09:53:06.250Z,115
2018-11-06T09:53:38.323Z,110
2018-11-06T09:54:10.409Z,110
2018-11-06T09:54:42.439Z,105
2018-11-06T09:55:14.521Z,105
2018-11-06T09:55:46.595Z,110
2018-11-06T09:56:18.658Z,105
2018-11-06T09:56:50.752Z,105
2018-11-06T09:57:22.834Z,110
2018-11-06T09:57:54.894Z,110
2018-11-06T09:58:26.899Z,110
2018-11-06T09:58:59.791Z,110
2018-11-06T09:59:31.817Z,115
2018-11-06T10:00:03.925Z,115
2018-11-06T10:00:36.002Z,120
2018-11-06T10:01:08.610Z,120
2018-11-06T10:01:40.814Z,115
2018-11-06T10:02:12.867Z,110
2018-11-06T10:02:44.912Z,115
2018-11-06T10:03:16.952Z,120
2018-11-06T10:03:49.048Z,125
2018-11-06T10:04:21.118Z,120
2018-11-06T10:04:53.198Z,120
2018-11-06T10:05:25.280Z,120
2018-11-06T10:05:57.361Z,125
2018-11-06T10:06:29.909Z,120
2018-11-06T10:07:02.189Z,120
2018-11-06T10:07:34.064Z,115
2018-11-06T10:08:06.124Z,110
2018-11-06T10:08:38.193Z,110
2018-11-06T10:09:10.277Z,100
2018-11-06T10:09:42.372Z,105
2018-11-06T10:10:14.453Z,125
2018-11-06T10:10:46.553Z,125
2018-11-06T10:11:18.618Z,125
2018-11-06T10:11:50.800Z,125
2018-11-06T10:12:22.901Z,125
2018-11-06T10:12:54.951Z,125
2018-11-06T10:13:27.000Z,115
2018-11-06T10:13:59.069Z,110
2018-11-06T10:14:31.118Z,110
2018-11-06T10:15:03.137Z,105
2018-11-06T10:15:35.328Z,100
2018-11-06T10:16:07.322Z,100
2018-11-06T10:16:39.387Z,100
2018-11-06T10:17:11.473Z,95
2018-11-06T10:17:43.543Z,100
2018-11-06T10:18:15.654Z,100
2018-11-06T10:18:47.732Z,105
2018-11-06T10:19:19.811Z,95
2018-11-06T10:19:51.900Z,95
2018-11-06T10:20:23.969Z,95
2018-11-06T10:20:55.964Z,95
2018-11-06T10:21:28.020Z,95
2018-11-06T10:22:00.063Z,90
2018-11-06T10:22:32.149Z,90
2018-11-06T10:23:04.187Z,90
2018-11-06T10:23:36.250Z,90
2018-11-06T10:24:08.283Z,90
2018-11-06T10:24:40.343Z,95
2018-11-06T10:25:12.379Z,95
2018-11-06T10:25:44.468Z,100
2018-11-06T10:26:16.537Z,100
2018-11-06T10:26:48.646Z,100
2018-11-06T10:27:20.718Z,100
2018-11-06T10:27:52.752Z,100
2018-11-06T10:28:24.824Z,105
2018-11-06T10:28:56.890Z,105
2018-11-06T10:29:28.951Z,105
2018-11-06T10:30:01.013Z,105
2018-11-06T10:30:33.096Z,105
2018-11-06T10:31:05.179Z,105
2018-11-06T10:31:37.206Z,105
2018-11-06T10:32:09.296Z,105
2018-11-06T10:32:41.402Z,105
2018-11-06T10:33:13.437Z,110
2018-11-06T10:33:45.488Z,110
2018-11-06T10:34:17.537Z,110
2018-11-06T10:34:49.602Z,110
2018-11-06T10:35:21.690Z,110
2018-11-06T10:35:53.771Z,110
2018-11-06T10:36:25.829Z,110
2018-11-06T10:36:57.906Z,110
2018-11-06T10:37:30.013Z,110
2018-11-06T10:38:02.222Z,110
2018-11-06T10:38:34.269Z,110
2018-11-06T10:39:06.328Z,110
2018-11-06T10:39:38.394Z,105
2018-11-06T10:40:10.446Z,105
2018-11-06T10:40:42.530Z,105
2018-11-06T10:41:14.596Z,105
2018-11-06T10:41:46.652Z,105
2018-11-06T10:42:18.688Z,105
2018-11-06T10:42:50.729Z,105
2018-11-06T10:43:22.801Z,100
2018-11-06T10:43:54.840Z,100
2018-11-06T10:44:26.962Z,100
2018-11-06T10:44:58.999Z,100
2018-11-06T10:45:31.087Z,100
2018-11-06T10:46:03.177Z,100
2018-11-06T10:46:35.264Z,100
2018-11-06T10:47:07.318Z,100
2018-11-06T10:47:39.341Z,95
2018-11-06T10:48:11.393Z,100
2018-11-06T10:48:43.477Z,95
2018-11-06T10:49:15.499Z,95
2018-11-06T10:49:47.583Z,100
2018-11-06T10:50:19.667Z,100
2018-11-06T10:50:51.741Z,100
2018-11-06T10:51:23.792Z,100
2018-11-06T10:51:55.955Z,100
2018-11-06T10:52:27.922Z,100
2018-11-06T10:53:00.014Z,100
2018-11-06T10:53:32.086Z,100
2018-11-06T10:54:04.177Z,100
2018-11-06T10:54:36.251Z,100
2018-11-06T10:55:08.302Z,100
2018-11-06T10:55:40.359Z,100
2018-11-06T10:56:12.421Z,100
2018-11-06T10:56:44.493Z,105
2018-11-06T10:57:16.548Z,105
2018-11-06T10:57:48.631Z,105
2018-11-06T10:58:20.728Z,105
2018-11-06T10:58:52.746Z,105
2018-11-06T10:59:24.815Z,105
2018-11-06T10:59:56.868Z,110
2018-11-06T11:00:28.937Z,110
2018-11-06T11:01:01.026Z,110
2018-11-06T11:01:33.165Z,110
2018-11-06T11:02:05.229Z,110
2018-11-06T11:02:37.314Z,115
2018-11-06T11:03:09.384Z,115
2018-11-06T11:03:41.801Z,115
2018-11-06T11:04:14.070Z,115
2018-11-06T11:04:46.710Z,120
2018-11-06T11:05:18.828Z,120
2018-11-06T11:05:50.922Z,120
2018-11-06T11:06:22.985Z,120
2018-11-06T11:06:55.069Z,120
2018-11-06T11:07:27.139Z,120
2018-11-06T11:07:59.206Z,125
2018-11-06T11:08:32.195Z,125
2018-11-06T11:09:04.289Z,125
2018-11-06T11:09:36.375Z,125
2018-11-06T11:10:08.433Z,130
2018-11-06T11:10:40.511Z,130
2018-11-06T11:11:12.547Z,130
2018-11-06T11:11:44.611Z,135
2018-11-06T11:12:16.651Z,135
2018-11-06T11:12:48.654Z,135
2018-11-06T11:13:20.804Z,135
2018-11-06T11:13:52.805Z,140
2018-11-06T11:14:24.894Z,140
2018-11-06T11:14:56.954Z,140
2018-11-06T11:15:29.028Z,140
2018-11-06T11:16:01.108Z,145
2018-11-06T11:16:33.200Z,145
2018-11-06T11:17:05.211Z,145
2018-11-06T11:17:37.288Z,150
2018-11-06T11:18:09.310Z,150
2018-11-06T11:18:41.375Z,150
2018-11-06T11:19:13.418Z,155
2018-11-06T11:19:45.458Z,160
2018-11-06T11:20:18.503Z,165
2018-11-06T11:20:50.537Z,170
2018-11-06T11:21:22.595Z,180
2018-11-06T11:21:54.661Z,190
2018-11-06T11:22:26.730Z,205
2018-11-06T11:22:58.818Z,200
2018-11-06T11:23:30.898Z,195
2018-11-06T11:24:02.955Z,200
2018-11-06T11:24:35.003Z,210
2018-11-06T11:25:07.089Z,210
2018-11-06T11:25:39.377Z,210
2018-11-06T11:26:11.420Z,220
2018-11-06T11:26:43.462Z,210
2018-11-06T11:27:15.553Z,205
2018-11-06T11:27:47.604Z,195
2018-11-06T11:28:19.660Z,190
2018-11-06T11:29:11.839Z,200
2018-11-06T11:29:43.907Z,200
2018-11-06T11:30:15.985Z,195
2018-11-06T11:30:48.056Z,205
2018-11-06T11:31:20.149Z,215
2018-11-06T11:31:52.201Z,220
2018-11-06T11:32:24.265Z,225
2018-11-06T11:32:56.276Z,220
2018-11-06T11:33:28.379Z,215
2018-11-06T11:34:00.507Z,210
2018-11-06T11:34:32.541Z,210
2018-11-06T11:35:04.595Z,205
2018-11-06T11:35:36.664Z,205
2018-11-06T11:36:08.743Z,205
2018-11-06T11:36:40.853Z,210
2018-11-06T11:37:12.916Z,220
2018-11-06T11:37:45.300Z,225
2018-11-06T11:38:17.255Z,225
2018-11-06T11:38:49.330Z,220
2018-11-06T11:39:21.400Z,220
2018-11-06T11:39:53.451Z,220
2018-11-06T11:40:25.523Z,225
2018-11-06T11:40:57.524Z,225
2018-11-06T11:41:29.597Z,220
2018-11-06T11:42:01.699Z,215
2018-11-06T11:42:33.742Z,215
2018-11-06T11:43:05.797Z,220
2018-11-06T11:43:37.864Z,220
2018-11-06T11:44:09.912Z,215
2018-11-06T11:44:41.971Z,215
2018-11-06T11:45:14.034Z,215
2018-11-06T11:45:46.167Z,215
2018-11-06T11:46:18.208Z,225
2018-11-06T11:46:50.248Z,230
2018-11-06T11:47:22.276Z,225
2018-11-06T11:47:54.317Z,220
2018-11-06T11:48:26.357Z,220
2018-11-06T11:48:58.437Z,220
2018-11-06T11:49:30.447Z,235
2018-11-06T11:50:02.487Z,230
2018-11-06T11:50:34.621Z,230
2018-11-06T11:51:06.670Z,220
2018-11-06T11:51:38.694Z,210
2018-11-06T11:52:10.773Z,215
2018-11-06T11:52:42.807Z,230
2018-11-06T11:53:14.875Z,250
2018-11-06T11:53:46.979Z,260
2018-11-06T11:54:19.072Z,265
2018-11-06T11:54:51.086Z,265
2018-11-06T11:55:23.164Z,270
2018-11-06T11:55:55.228Z,275
2018-11-06T11:56:27.299Z,275
2018-11-06T11:56:59.376Z,275
2018-11-06T11:57:31.391Z,260
2018-11-06T11:58:03.502Z,270
2018-11-06T11:58:35.596Z,275
2018-11-06T11:59:07.651Z,275
2018-11-06T11:59:39.729Z,270
2018-11-06T12:00:11.998Z,270
2018-11-06T12:00:44.100Z,270
2018-11-06T12:01:16.162Z,275
2018-11-06T12:01:48.242Z,285
2018-11-06T12:02:20.472Z,295
2018-11-06T12:02:52.488Z,325
2018-11-06T12:03:24.518Z,370
2018-11-06T12:03:56.581Z,380
2018-11-06T12:04:28.669Z,390
2018-11-06T12:05:00.759Z,410
2018-11-06T12:05:32.842Z,425
2018-11-06T12:06:04.931Z,460
2018-11-06T12:06:36.987Z,440
2018-11-06T12:07:09.067Z,425
2018-11-06T12:07:41.129Z,410
2018-11-06T12:08:13.181Z,425
2018-11-06T12:08:45.241Z,440
2018-11-06T12:09:17.345Z,445
2018-11-06T12:09:49.406Z,400
2018-11-06T12:10:21.458Z,375
2018-11-06T12:10:53.551Z,375
2018-11-06T12:11:25.609Z,355
2018-11-06T12:11:57.618Z,360
2018-11-06T12:12:29.656Z,380
2018-11-06T12:13:01.729Z,385
2018-11-06T12:13:33.742Z,370
2018-11-06T12:14:05.947Z,340
2018-11-06T12:14:38.072Z,310
2018-11-06T12:15:10.135Z,305
2018-11-06T12:15:42.202Z,310
2018-11-06T12:16:14.227Z,315
2018-11-06T12:16:46.310Z,325
2018-11-06T12:17:18.413Z,315
2018-11-06T12:17:50.476Z,330
2018-11-06T12:18:22.714Z,340
2018-11-06T12:18:54.844Z,355
2018-11-06T12:19:26.899Z,370
2018-11-06T12:19:59.001Z,380
2018-11-06T12:20:31.093Z,385
2018-11-06T12:21:03.118Z,405
2018-11-06T12:21:35.194Z,400
2018-11-06T12:22:07.313Z,390
2018-11-06T12:22:39.387Z,390
2018-11-06T12:23:11.491Z,385
2018-11-06T12:23:43.577Z,405
2018-11-06T12:24:15.816Z,415
2018-11-06T12:24:48.021Z,420
2018-11-06T12:25:21.176Z,390
2018-11-06T12:25:54.034Z,390
2018-11-06T12:26:26.110Z,425
2018-11-06T12:26:58.172Z,445
2018-11-06T12:27:30.270Z,525
2018-11-06T12:28:02.370Z,565
2018-11-06T12:28:34.426Z,545
2018-11-06T12:29:06.536Z,515
2018-11-06T12:29:38.653Z,490
2018-11-06T12:30:10.743Z,495
2018-11-06T12:30:42.819Z,480
2018-11-06T12:31:14.914Z,475
2018-11-06T12:31:47.028Z,515
2018-11-06T12:32:19.120Z,520
2018-11-06T12:32:51.186Z,515
2018-11-06T12:33:23.207Z,510
2018-11-06T12:33:55.316Z,470
2018-11-06T12:34:27.385Z,430
2018-11-06T12:34:59.424Z,430
2018-11-06T12:35:31.491Z,470
2018-11-06T12:36:03.540Z,505
2018-11-06T12:36:35.639Z,510
2018-11-06T12:37:07.776Z,530
2018-11-06T12:37:39.785Z,570
2018-11-06T12:38:11.840Z,570
2018-11-06T12:38:43.831Z,540
2018-11-06T12:39:15.951Z,485
2018-11-06T12:39:48.008Z,480
2018-11-06T12:40:20.072Z,480
2018-11-06T12:40:52.187Z,445
2018-11-06T12:41:24.311Z,400
2018-11-06T12:41:56.412Z,385
2018-11-06T12:42:28.462Z,365
2018-11-06T12:43:00.786Z,350
2018-11-06T12:43:32.920Z,320
2018-11-06T12:44:04.889Z,290
2018-11-06T12:44:36.937Z,265
2018-11-06T12:45:09.029Z,255
2018-11-06T12:45:41.114Z,250
2018-11-06T12:46:13.172Z,250
2018-11-06T12:46:45.211Z,255
2018-11-06T12:47:17.294Z,245
2018-11-06T12:47:49.351Z,240
2018-11-06T12:48:21.431Z,235
2018-11-06T12:48:53.505Z,240
2018-11-06T12:49:25.551Z,240
2018-11-06T12:49:57.618Z,240
2018-11-06T12:50:29.770Z,240
2018-11-06T12:51:01.809Z,240
2018-11-06T12:51:33.885Z,245
2018-11-06T12:52:05.972Z,250
2018-11-06T12:52:38.052Z,250
2018-11-06T12:53:10.117Z,250
2018-11-06T12:53:42.173Z,255
2018-11-06T12:54:14.199Z,265
2018-11-06T12:54:46.263Z,275
2018-11-06T12:55:18.320Z,280
2018-11-06T12:55:50.391Z,275
2018-11-06T12:56:22.480Z,265
2018-11-06T12:56:54.568Z,260
2018-11-06T12:57:26.656Z,255
2018-11-06T12:57:58.688Z,245
2018-11-06T12:58:30.786Z,235
2018-11-06T12:59:02.854Z,225
2018-11-06T12:59:34.925Z,210
2018-11-06T13:00:06.956Z,200
2018-11-06T13:00:39.037Z,195
2018-11-06T13:01:11.120Z,195
2018-11-06T13:01:43.174Z,195
2018-11-06T13:02:15.239Z,190
2018-11-06T13:02:47.350Z,190
2018-11-06T13:03:19.489Z,185
2018-11-06T13:03:51.497Z,180
2018-11-06T13:04:23.572Z,180
2018-11-06T13:04:55.649Z,180
2018-11-06T13:05:27.738Z,180
2018-11-06T13:05:59.748Z,175
2018-11-06T13:06:31.766Z,175
2018-11-06T13:07:04.050Z,175
2018-11-06T13:07:36.130Z,175
2018-11-06T13:08:08.203Z,170
2018-11-06T13:08:40.251Z,170
2018-11-06T13:09:12.325Z,165
2018-11-06T13:09:44.453Z,165
2018-11-06T13:10:16.462Z,165
2018-11-06T13:10:48.512Z,170
2018-11-06T13:11:20.557Z,165
2018-11-06T13:11:52.669Z,165
2018-11-06T13:12:24.730Z,165
2018-11-06T13:12:56.797Z,160
2018-11-06T13:13:28.866Z,155
2018-11-06T13:14:00.956Z,150
2018-11-06T13:14:33.011Z,150
2018-11-06T13:15:05.012Z,145
2018-11-06T13:15:37.336Z,145
2018-11-06T13:16:09.503Z,140
2018-11-06T13:16:41.446Z,140
2018-11-06T13:17:13.696Z,140
2018-11-06T13:17:45.596Z,140
2018-11-06T13:18:17.656Z,140
2018-11-06T13:18:49.771Z,140
2018-11-06T13:19:21.803Z,140
2018-11-06T13:19:53.889Z,140
2018-11-06T13:20:25.990Z,140
2018-11-06T13:20:58.053Z,140
2018-11-06T13:21:30.094Z,140
2018-11-06T13:22:02.161Z,140
2018-11-06T13:22:34.211Z,140
2018-11-06T13:23:06.303Z,140
2018-11-06T13:23:38.389Z,140
2018-11-06T13:24:10.453Z,140
2018-11-06T13:24:42.500Z,140
2018-11-06T13:25:14.562Z,145
2018-11-06T13:25:46.779Z,145
2018-11-06T13:26:18.917Z,145
2018-11-06T13:26:50.851Z,145
2018-11-06T13:27:22.921Z,145
2018-11-06T13:27:55.030Z,150
2018-11-06T13:28:27.058Z,155
2018-11-06T13:28:59.229Z,160
2018-11-06T13:29:31.380Z,170
2018-11-06T13:30:03.419Z,170
2018-11-06T13:30:36.091Z,170
2018-11-06T13:31:08.144Z,160
2018-11-06T13:31:40.230Z,155
2018-11-06T13:32:12.369Z,160
2018-11-06T13:32:44.478Z,160
2018-11-06T13:33:16.545Z,165
2018-11-06T13:33:48.748Z,165
2018-11-06T13:34:20.838Z,160
2018-11-06T13:34:52.925Z,155
2018-11-06T13:35:24.999Z,150
2018-11-06T13:35:57.047Z,145
2018-11-06T13:36:29.091Z,145
2018-11-06T13:37:01.174Z,145
2018-11-06T13:37:33.270Z,145
2018-11-06T13:38:05.330Z,150
2018-11-06T13:38:37.406Z,150
2018-11-06T13:39:09.475Z,150
2018-11-06T13:39:41.537Z,150
2018-11-06T13:40:13.645Z,155
2018-11-06T13:40:45.717Z,155
2018-11-06T13:41:17.754Z,155
2018-11-06T13:41:49.802Z,155
2018-11-06T13:42:22.136Z,155
2018-11-06T13:42:54.392Z,160
2018-11-06T13:43:26.746Z,160
2018-11-06T13:43:59.105Z,165
2018-11-06T13:44:31.346Z,170
2018-11-06T13:45:03.116Z,175
2018-11-06T13:45:35.210Z,180
2018-11-06T13:46:07.103Z,180
2018-11-06T13:46:39.186Z,180
2018-11-06T13:47:11.283Z,185
2018-11-06T13:47:43.356Z,175
2018-11-06T13:48:15.393Z,175
2018-11-06T13:48:47.486Z,170
2018-11-06T13:49:19.522Z,175
2018-11-06T13:49:51.560Z,180
2018-11-06T13:50:23.593Z,180
2018-11-06T13:50:55.648Z,180
2018-11-06T13:51:27.707Z,180
2018-11-06T13:51:59.874Z,180
2018-11-06T13:52:31.855Z,180
2018-11-06T13:53:03.908Z,180
2018-11-06T13:53:35.987Z,185
2018-11-06T13:54:08.033Z,200
2018-11-06T13:54:40.102Z,210
2018-11-06T13:55:12.123Z,205
2018-11-06T13:55:44.169Z,205
2018-11-06T13:56:16.305Z,200
2018-11-06T13:56:48.446Z,205
2018-11-06T13:57:20.511Z,205
2018-11-06T13:57:52.606Z,190
2018-11-06T13:58:24.673Z,195
2018-11-06T13:58:56.737Z,195
2018-11-06T13:59:28.758Z,205
2018-11-06T14:00:00.961Z,220
2018-11-06T14:00:33.060Z,235
2018-11-06T14:01:05.293Z,250
2018-11-06T14:01:37.335Z,225
2018-11-06T14:02:09.418Z,240
2018-11-06T14:02:41.483Z,230
2018-11-06T14:03:13.564Z,200
2018-11-06T14:03:45.588Z,175
2018-11-06T14:04:17.747Z,170
2018-11-06T14:04:49.798Z,170
2018-11-06T14:05:21.871Z,165
2018-11-06T14:05:53.979Z,150
2018-11-06T14:06:26.052Z,135
2018-11-06T14:06:58.088Z,125
2018-11-06T14:07:30.121Z,120
2018-11-06T14:08:02.169Z,115
2018-11-06T14:08:34.237Z,115
2018-11-06T14:09:06.332Z,110
2018-11-06T14:09:38.424Z,110
2018-11-06T14:10:10.514Z,110
2018-11-06T14:10:42.552Z,110
2018-11-06T14:11:14.623Z,105
2018-11-06T14:11:46.659Z,100
2018-11-06T14:12:18.742Z,100
2018-11-06T14:12:50.800Z,95
2018-11-06T14:13:22.832Z,95
2018-11-06T14:13:54.880Z,95
2018-11-06T14:14:26.917Z,95
2018-11-06T14:14:58.976Z,90
2018-11-06T14:15:31.013Z,90
2018-11-06T14:16:03.078Z,90
2018-11-06T14:16:35.144Z,90
2018-11-06T14:17:07.240Z,90
2018-11-06T14:17:39.315Z,90
2018-11-06T14:18:11.388Z,90
2018-11-06T14:18:43.461Z,90
2018-11-06T14:19:15.539Z,90
2018-11-06T14:19:47.609Z,90
2018-11-06T14:20:19.710Z,90
2018-11-06T14:20:51.803Z,85
2018-11-06T14:21:23.860Z,85
2018-11-06T14:21:56.019Z,85
2018-11-06T14:22:28.104Z,80
2018-11-06T14:23:00.162Z,80
2018-11-06T14:23:32.227Z,80
2018-11-06T14:24:04.271Z,75
2018-11-06T14:24:36.363Z,75
2018-11-06T14:25:08.421Z,75
2018-11-06T14:25:40.500Z,75
2018-11-06T14:26:12.593Z,75
2018-11-06T14:26:44.679Z,70
2018-11-06T14:27:16.817Z,70
2018-11-06T14:27:48.843Z,70
2018-11-06T14:28:20.918Z,70
2018-11-06T14:28:52.988Z,70
2018-11-06T14:29:25.057Z,65
2018-11-06T14:29:57.214Z,65
2018-11-06T14:30:29.237Z,65
2018-11-06T14:31:01.441Z,65
2018-11-06T14:31:33.489Z,60
2018-11-06T14:32:05.540Z,60
2018-11-06T14:32:37.630Z,60
2018-11-06T14:33:09.720Z,60
2018-11-06T14:33:41.805Z,60
2018-11-06T14:34:13.837Z,55
2018-11-06T14:34:45.917Z,55
2018-11-06T14:35:17.962Z,55
2018-11-06T14:35:50.093Z,55
2018-11-06T14:36:22.139Z,55
2018-11-06T14:36:54.219Z,55
2018-11-06T14:37:26.270Z,50
2018-11-06T14:37:58.365Z,50
2018-11-06T14:38:30.452Z,50
2018-11-06T14:39:02.528Z,50
2018-11-06T14:39:34.665Z,50
2018-11-06T14:40:06.744Z,50
2018-11-06T14:40:38.812Z,45
2018-11-06T14:41:10.901Z,45
2018-11-06T14:41:42.954Z,45
2018-11-06T14:42:15.078Z,45
2018-11-06T14:42:47.250Z,45
2018-11-06T14:43:19.250Z,45
2018-11-06T14:43:51.292Z,45
2018-11-06T14:44:23.396Z,45
2018-11-06T14:44:55.460Z,45
2018-11-06T14:45:27.540Z,40
2018-11-06T14:45:59.617Z,40
2018-11-06T14:46:31.694Z,40
2018-11-06T14:47:03.757Z,40
2018-11-06T14:47:35.860Z,40
2018-11-06T14:48:07.969Z,40
2018-11-06T14:48:41.171Z,40
2018-11-06T14:49:13.043Z,40
2018-11-06T14:49:45.088Z,40
2018-11-06T14:50:17.403Z,40
2018-11-06T14:50:49.429Z,40
2018-11-06T14:51:21.502Z,35
2018-11-06T14:51:53.559Z,35
2018-11-06T14:52:25.596Z,35
2018-11-06T14:52:57.659Z,35
2018-11-06T14:53:29.727Z,35
2018-11-06T14:54:01.803Z,35
2018-11-06T14:54:33.887Z,35
2018-11-06T14:55:05.960Z,35
2018-11-06T14:55:37.959Z,35
2018-11-06T14:56:10.368Z,35
2018-11-06T14:56:42.369Z,35
2018-11-06T14:57:14.398Z,35
2018-11-06T14:57:46.499Z,35
2018-11-06T14:58:18.587Z,35
2018-11-06T14:58:50.673Z,35
2018-11-06T14:59:22.767Z,35
2018-11-06T14:59:54.804Z,30
2018-11-06T15:00:26.854Z,30
2018-11-06T15:00:58.932Z,30
2018-11-06T15:01:31.021Z,30
2018-11-06T15:02:03.094Z,30
2018-11-06T15:02:35.169Z,30
2018-11-06T15:03:07.277Z,30
2018-11-06T15:03:39.332Z,30
2018-11-06T15:04:11.402Z,30
2018-11-06T15:04:43.456Z,30
2018-11-06T15:05:15.537Z,30
2018-11-06T15:05:47.642Z,25
2018-11-06T15:06:19.758Z,25
2018-11-06T15:06:51.835Z,25
2018-11-06T15:07:23.935Z,25
2018-11-06T15:07:56.025Z,25
2018-11-06T15:08:28.100Z,25
2018-11-06T15:09:00.196Z,25
2018-11-06T15:09:32.231Z,25
2018-11-06T15:10:04.280Z,25
2018-11-06T15:10:36.320Z,20
2018-11-06T15:11:08.420Z,20
2018-11-06T15:11:40.462Z,20
2018-11-06T15:12:12.557Z,20
2018-11-06T15:12:44.909Z,20
2018-11-06T15:13:17.005Z,20
2018-11-06T15:13:49.064Z,20
2018-11-06T15:14:21.150Z,20
2018-11-06T15:14:53.260Z,20
2018-11-06T15:15:25.337Z,20
2018-11-06T15:15:57.408Z,20
2018-11-06T15:16:29.488Z,15
2018-11-06T15:17:01.551Z,15
2018-11-06T15:17:33.646Z,15
2018-11-06T15:18:05.746Z,15
2018-11-06T15:18:37.754Z,15
2018-11-06T15:19:09.837Z,15
2018-11-06T15:19:41.870Z,15
2018-11-06T15:20:13.962Z,15
2018-11-06T15:20:46.168Z,15
2018-11-06T15:21:18.196Z,15
2018-11-06T15:21:50.291Z,15
2018-11-06T15:22:22.350Z,15
2018-11-06T15:22:54.444Z,10
2018-11-06T15:23:26.540Z,10
2018-11-06T15:23:58.598Z,10
2018-11-06T15:24:30.667Z,10
2018-11-06T15:25:02.724Z,10
2018-11-06T15:25:34.803Z,10
2018-11-06T15:26:06.845Z,10
2018-11-06T15:26:39.178Z,10
2018-11-06T15:27:11.164Z,10
2018-11-06T15:27:43.247Z,10
2018-11-06T15:28:15.329Z,10
2018-11-06T15:28:47.405Z,10
2018-11-06T15:29:19.498Z,5
2018-11-06T15:29:51.550Z,5
2018-11-06T15:30:23.595Z,5
2018-11-06T15:30:55.647Z,5
2018-11-06T15:31:27.714Z,5
2018-11-06T15:31:59.845Z,5
2018-11-06T15:32:31.872Z,5
2018-11-06T15:33:03.961Z,5
2018-11-06T15:33:36.047Z,5
2018-11-06T15:34:08.121Z,5
2018-11-06T15:34:40.212Z,5
2018-11-06T15:35:12.300Z,5
2018-11-06T15:35:44.340Z,5
2018-11-06T15:36:16.420Z,5
2018-11-06T15:36:48.524Z,5
2018-11-06T15:37:20.607Z,5
2018-11-06T15:37:52.695Z,5
2018-11-06T15:38:24.775Z,5
2018-11-06T15:38:56.842Z,5
2018-11-06T15:39:28.953Z,5
2018-11-06T15:40:00.997Z,5
2018-11-06T15:40:33.076Z,0
2018-11-06T15:41:05.437Z,0
2018-11-06T15:41:37.893Z,0
2018-11-06T15:42:10.017Z,0
2018-11-06T15:42:41.954Z,0
2018-11-06T15:43:14.012Z,0
2018-11-06T15:43:46.093Z,0
2018-11-06T15:44:18.176Z,0
2018-11-06T15:44:50.209Z,0
2018-11-06T15:45:22.283Z,0
2018-11-06T15:45:54.338Z,0
2018-11-06T15:46:26.444Z,0
2018-11-06T15:46:58.532Z,0
2018-11-06T15:47:30.603Z,0
2018-11-06T15:48:02.705Z,0
2018-11-06T15:48:34.908Z,0
2018-11-06T15:49:06.899Z,0
2018-11-06T15:49:38.944Z,0
2018-11-06T15:50:10.990Z,0
2018-11-06T15:50:43.079Z,0
2018-11-06T15:51:15.137Z,0
2018-11-06T15:51:47.222Z,0
2018-11-06T15:52:19.276Z,0
2018-11-06T15:52:51.326Z,0
2018-11-06T15:53:23.372Z,0
2018-11-06T15:53:55.425Z,0
2018-11-06T15:54:27.515Z,0
2018-11-06T15:54:59.579Z,0
2018-11-06T15:55:31.610Z,0
2018-11-06T15:56:03.684Z,0
2018-11-06T15:56:35.735Z,0
2018-11-06T15:57:07.827Z,0
2018-11-06T15:57:39.871Z,0
2018-11-06T15:58:11.932Z,0
2018-11-06T15:58:43.993Z,0
2018-11-06T15:59:16.069Z,0
2018-11-06T15:59:48.133Z,0
2018-11-06T16:00:20.196Z,0
2018-11-06T16:00:52.395Z,0
2018-11-06T16:01:24.512Z,0
2018-11-06T16:01:56.567Z,0
2018-11-06T16:02:28.647Z,0
2018-11-06T16:03:00.721Z,0
2018-11-06T16:03:32.811Z,0
2018-11-06T16:04:04.865Z,0
2018-11-06T16:04:36.924Z,0
2018-11-06T16:05:09.017Z,0
2018-11-06T16:05:41.097Z,0
2018-11-06T16:06:13.155Z,0
2018-11-06T16:06:45.176Z,0
2018-11-06T16:07:17.270Z,0
2018-11-06T16:07:49.344Z,0
2018-11-06T16:08:21.528Z,0
2018-11-06T16:08:53.537Z,0
2018-11-06T16:09:25.581Z,0
2018-11-06T16:09:57.674Z,0
2018-11-06T16:10:29.760Z,0
2018-11-06T16:11:01.856Z,0
2018-11-06T16:11:33.890Z,0
2018-11-06T16:12:05.953Z,0
2018-11-06T16:12:38.057Z,0
2018-11-06T16:13:10.149Z,0
2018-11-06T16:13:42.248Z,0
2018-11-06T16:14:14.334Z,0
2018-11-06T16:14:46.391Z,0
2018-11-06T16:15:18.643Z,0
2018-11-06T16:15:50.671Z,0
2018-11-06T16:16:22.748Z,0
2018-11-06T16:16:54.818Z,0
2018-11-06T16:17:26.915Z,0
2018-11-06T16:17:58.973Z,0
2018-11-06T16:18:31.055Z,0
2018-11-06T16:19:03.147Z,0
2018-11-06T16:19:35.239Z,0
2018-11-06T16:20:07.265Z,0
2018-11-06T16:20:39.356Z,0
2018-11-06T16:21:11.405Z,0
2018-11-06T16:21:43.451Z,0
2018-11-06T16:22:15.536Z,0
2018-11-06T16:22:47.601Z,0
2018-11-06T16:23:19.665Z,0
2018-11-06T16:23:51.725Z,0
2018-11-06T16:24:23.785Z,0
2018-11-06T16:24:55.881Z,0
2018-11-06T16:25:27.975Z,0
2018-11-06T16:26:00.081Z,0
2018-11-06T16:26:32.135Z,0
2018-11-06T16:27:04.184Z,0
2018-11-06T16:27:36.274Z,0
2018-11-06T16:28:08.335Z,0
2018-11-06T16:28:40.432Z,0
2018-11-06T16:29:12.530Z,0
2018-11-06T16:29:44.699Z,0
2018-11-06T16:30:16.710Z,0
2018-11-06T16:30:48.777Z,0
2018-11-06T16:31:20.879Z,0
2018-11-06T16:31:52.930Z,0
2018-11-06T16:32:25.028Z,0
2018-11-06T16:32:57.108Z,0
2018-11-06T16:33:29.126Z,0
2018-11-06T16:34:01.184Z,0
2018-11-06T16:34:33.231Z,0
2018-11-06T16:35:05.291Z,0
2018-11-06T16:35:37.386Z,0
2018-11-06T16:36:09.424Z,0
2018-11-06T16:36:41.467Z,0
2018-11-06T16:37:13.542Z,0
2018-11-06T16:37:45.597Z,0
2018-11-06T16:38:17.674Z,0
2018-11-06T16:38:49.755Z,0
2018-11-06T16:39:21.804Z,0
2018-11-06T16:39:53.817Z,0
2018-11-06T16:40:25.874Z,0
2018-11-06T16:40:57.977Z,0
2018-11-06T16:41:30.111Z,0
2018-11-06T16:42:02.124Z,0
2018-11-06T16:42:34.187Z,0
2018-11-06T16:43:06.244Z,0
2018-11-06T16:43:38.300Z,0
2018-11-06T16:44:10.833Z,0